Lunamar — 5BNV2 — position and weather

sailwx.info

Track history (hours):
 
Tides and Currents Weather Stations Pressure Air Temp Water Temp Dewpoint Dewpoint Depression Visibility Wind Speed Wind Dir Waves Ship Positions

Lunamar

Last reported at 2014-Oct-14 01:25 UTC. Time now 2014-Oct-22 23:20 UTC.
Position N 55°23' E 014°36'.
Warning: this ship's position is 8 days out of date.

Length 90 m; draft 5.4 m.

Type: Cargo ship. MMSI: 212762000.

Date/timePositionNaut miles runAvg speedWind from/ knotsBaromVisibWave heightAir tempDewpointWater temp
2014-Oct-14 01:25N 55°23' E 014°36'9 9.9
2014-Oct-14 00:33N 55°16' E 014°28'1010.5
2014-Oct-13 23:34N 55°07' E 014°21'1111.0
2014-Oct-13 22:32N 54°56' E 014°14'  
2014-Oct-10 08:09N 54°33' E 014°31'17 9.8
2014-Oct-10 06:27N 54°45' E 014°51'910.2
2014-Oct-10 05:33N 54°52' E 015°02'1010.3
2014-Oct-10 04:33N 54°59' E 015°14'1010.4
2014-Oct-10 03:33N 55°08' E 015°24'1310.3
2014-Oct-10 02:20N 55°18' E 015°37'4410.5
2014-Oct-09 22:10N 55°54' E 016°22'710.7
2014-Oct-09 21:30N 55°60' E 016°29'6310.2
2014-Oct-09 15:19N 56°56' E 017°18'1010.0
2014-Oct-09 14:16N 57°06' E 017°25'710.1
2014-Oct-09 13:33N 57°13' E 017°30'1010.1
2014-Oct-09 12:33N 57°22' E 017°37'2010.0
2014-Oct-09 10:33N 57°39' E 017°57'153 3.2
2014-Oct-07 11:21N 55°35' E 015°16'6 7.4
2014-Oct-07 10:31N 55°32' E 015°07'7 7.2
2014-Oct-07 09:33N 55°28' E 014°56'7 7.3
2014-Oct-07 08:33N 55°25' E 014°45'8 7.9
2014-Oct-07 07:31N 55°20' E 014°33'10 9.6
2014-Oct-07 06:28N 55°12' E 014°22'59 7.5
2014-Oct-06 22:33N 55°18' E 012°38'10 9.8
2014-Oct-06 21:33N 55°28' E 012°41'1010.0
2014-Oct-06 20:33N 55°38' E 012°42'10 9.8
2014-Oct-06 19:33N 55°47' E 012°41'1010.4
2014-Oct-06 18:33N 55°58' E 012°38'8 8.2
2014-Oct-06 17:33N 56°06' E 012°34'6 6.3
2014-Oct-06 16:33N 56°12' E 012°33'0 0.1
2014-Oct-06 15:33N 56°12' E 012°33'0 0.0
2014-Oct-06 14:33N 56°12' E 012°33'0 0.0
2014-Oct-06 13:33N 56°12' E 012°33'0 0.0
2014-Oct-06 12:33N 56°12' E 012°33'0 0.0
2014-Oct-06 11:29N 56°12' E 012°33'0 0.0
2014-Oct-06 10:33N 56°12' E 012°33'0 0.0
2014-Oct-06 09:30N 56°12' E 012°33'0 0.0
2014-Oct-06 08:23N 56°12' E 012°33'0 0.0
2014-Oct-06 07:32N 56°12' E 012°33'0 0.0
2014-Oct-06 06:32N 56°12' E 012°33'0 0.0
2014-Oct-06 05:26N 56°12' E 012°33'0 0.0
2014-Oct-06 04:32N 56°12' E 012°33'0 0.0
2014-Oct-06 03:17N 56°12' E 012°33'0 0.0
2014-Oct-06 02:32N 56°12' E 012°33'0 0.0
2014-Oct-06 01:32N 56°12' E 012°33'0 0.0
2014-Oct-06 00:32N 56°12' E 012°33'0 0.0
2014-Oct-05 23:29N 56°12' E 012°33'0 0.0
2014-Oct-05 22:29N 56°12' E 012°33'0 0.0
2014-Oct-05 21:26N 56°12' E 012°33'0 0.0
2014-Oct-05 20:26N 56°12' E 012°33'0 0.0
2014-Oct-05 19:32N 56°12' E 012°33'0 0.0
2014-Oct-05 18:32N 56°12' E 012°33'0 0.0
2014-Oct-05 17:29N 56°12' E 012°33'0 0.0
2014-Oct-05 16:32N 56°12' E 012°33'0 0.0
2014-Oct-05 15:32N 56°12' E 012°33'0 0.0
2014-Oct-05 14:32N 56°12' E 012°33'0 0.0
2014-Oct-05 13:29N 56°12' E 012°33'0 0.0
2014-Oct-05 12:29N 56°12' E 012°33'0 0.0
2014-Oct-05 11:32N 56°12' E 012°33'0 0.0
2014-Oct-05 10:32N 56°12' E 012°33'0 0.0
2014-Oct-05 09:32N 56°12' E 012°33'0 0.0
2014-Oct-05 08:20N 56°12' E 012°33'0 0.0
2014-Oct-05 07:32N 56°12' E 012°33'0 0.0
2014-Oct-05 06:29N 56°12' E 012°33'0 0.0
2014-Oct-05 05:32N 56°12' E 012°33'0 0.0
2014-Oct-05 04:29N 56°12' E 012°33'0 0.0
2014-Oct-05 03:32N 56°12' E 012°33'0 0.0
2014-Oct-05 02:32N 56°12' E 012°33'0 0.0
2014-Oct-05 01:32N 56°12' E 012°33'0 0.0
2014-Oct-05 00:32N 56°12' E 012°33'0 0.0
2014-Oct-04 23:29N 56°12' E 012°33'0 0.0
2014-Oct-04 22:32N 56°12' E 012°33'0 0.0
2014-Oct-04 21:29N 56°12' E 012°33'0 0.0
2014-Oct-04 20:32N 56°12' E 012°33'0 0.0
2014-Oct-04 19:32N 56°12' E 012°33'0 0.0
2014-Oct-04 18:26N 56°12' E 012°33'0 0.0
2014-Oct-04 17:26N 56°12' E 012°33'0 0.0
2014-Oct-04 16:29N 56°12' E 012°33'0 0.0
2014-Oct-04 15:32N 56°12' E 012°33'0 0.0
2014-Oct-04 14:29N 56°12' E 012°33'0 0.0
2014-Oct-04 13:26N 56°12' E 012°33'0 0.0
2014-Oct-04 12:32N 56°12' E 012°33'0 0.0
2014-Oct-04 11:32N 56°12' E 012°33'0 0.0
2014-Oct-04 10:26N 56°12' E 012°33'0 0.0
2014-Oct-04 09:32N 56°12' E 012°33'0 0.0
2014-Oct-04 08:32N 56°12' E 012°33'0 0.0
2014-Oct-04 07:29N 56°12' E 012°33'0 0.0
2014-Oct-04 06:32N 56°12' E 012°33'0 0.0
2014-Oct-04 05:29N 56°12' E 012°33'0 0.0
2014-Oct-04 04:32N 56°12' E 012°33'0 0.0
2014-Oct-04 03:32N 56°12' E 012°33'0 0.0
2014-Oct-04 02:32N 56°12' E 012°33'0 0.0
2014-Oct-04 01:29N 56°12' E 012°33'  
Track history (hours):
 
Tides and Currents Weather Stations Pressure Air Temp Water Temp Dewpoint Dewpoint Depression Visibility Wind Speed Wind Dir Waves Ship Positions

Lunamar

Last reported at 2014-Oct-14 01:25 UTC. Time now 2014-Oct-22 23:20 UTC.
Position N 55°23' E 014°36'.
Warning: this ship's position is 8 days out of date.

Length 90 m; draft 5.4 m.

Type: Cargo ship. MMSI: 212762000.

Date/timePositionNaut miles runAvg speedWind from/ knotsBaromVisibWave heightAir tempDewpointWater temp
2014-Oct-14 01:25N 55°23' E 014°36'9 9.9
2014-Oct-14 00:33N 55°16' E 014°28'1010.5
2014-Oct-13 23:34N 55°07' E 014°21'1111.0
2014-Oct-13 22:32N 54°56' E 014°14'  
2014-Oct-10 08:09N 54°33' E 014°31'17 9.8
2014-Oct-10 06:27N 54°45' E 014°51'910.2
2014-Oct-10 05:33N 54°52' E 015°02'1010.3
2014-Oct-10 04:33N 54°59' E 015°14'1010.4
2014-Oct-10 03:33N 55°08' E 015°24'1310.3
2014-Oct-10 02:20N 55°18' E 015°37'4410.5
2014-Oct-09 22:10N 55°54' E 016°22'710.7
2014-Oct-09 21:30N 55°60' E 016°29'6310.2
2014-Oct-09 15:19N 56°56' E 017°18'1010.0
2014-Oct-09 14:16N 57°06' E 017°25'710.1
2014-Oct-09 13:33N 57°13' E 017°30'1010.1
2014-Oct-09 12:33N 57°22' E 017°37'2010.0
2014-Oct-09 10:33N 57°39' E 017°57'153 3.2
2014-Oct-07 11:21N 55°35' E 015°16'6 7.4
2014-Oct-07 10:31N 55°32' E 015°07'7 7.2
2014-Oct-07 09:33N 55°28' E 014°56'7 7.3
2014-Oct-07 08:33N 55°25' E 014°45'8 7.9
2014-Oct-07 07:31N 55°20' E 014°33'10 9.6
2014-Oct-07 06:28N 55°12' E 014°22'59 7.5
2014-Oct-06 22:33N 55°18' E 012°38'10 9.8
2014-Oct-06 21:33N 55°28' E 012°41'1010.0
2014-Oct-06 20:33N 55°38' E 012°42'10 9.8
2014-Oct-06 19:33N 55°47' E 012°41'1010.4
2014-Oct-06 18:33N 55°58' E 012°38'8 8.2
2014-Oct-06 17:33N 56°06' E 012°34'6 6.3
2014-Oct-06 16:33N 56°12' E 012°33'0 0.1
2014-Oct-06 15:33N 56°12' E 012°33'0 0.0
2014-Oct-06 14:33N 56°12' E 012°33'0 0.0
2014-Oct-06 13:33N 56°12' E 012°33'0 0.0
2014-Oct-06 12:33N 56°12' E 012°33'0 0.0
2014-Oct-06 11:29N 56°12' E 012°33'0 0.0
2014-Oct-06 10:33N 56°12' E 012°33'0 0.0
2014-Oct-06 09:30N 56°12' E 012°33'0 0.0
2014-Oct-06 08:23N 56°12' E 012°33'0 0.0
2014-Oct-06 07:32N 56°12' E 012°33'0 0.0
2014-Oct-06 06:32N 56°12' E 012°33'0 0.0
2014-Oct-06 05:26N 56°12' E 012°33'0 0.0
2014-Oct-06 04:32N 56°12' E 012°33'0 0.0
2014-Oct-06 03:17N 56°12' E 012°33'0 0.0
2014-Oct-06 02:32N 56°12' E 012°33'0 0.0
2014-Oct-06 01:32N 56°12' E 012°33'0 0.0
2014-Oct-06 00:32N 56°12' E 012°33'0 0.0
2014-Oct-05 23:29N 56°12' E 012°33'0 0.0
2014-Oct-05 22:29N 56°12' E 012°33'0 0.0
2014-Oct-05 21:26N 56°12' E 012°33'0 0.0
2014-Oct-05 20:26N 56°12' E 012°33'0 0.0
2014-Oct-05 19:32N 56°12' E 012°33'0 0.0
2014-Oct-05 18:32N 56°12' E 012°33'0 0.0
2014-Oct-05 17:29N 56°12' E 012°33'0 0.0
2014-Oct-05 16:32N 56°12' E 012°33'0 0.0
2014-Oct-05 15:32N 56°12' E 012°33'0 0.0
2014-Oct-05 14:32N 56°12' E 012°33'0 0.0
2014-Oct-05 13:29N 56°12' E 012°33'0 0.0
2014-Oct-05 12:29N 56°12' E 012°33'0 0.0
2014-Oct-05 11:32N 56°12' E 012°33'0 0.0
2014-Oct-05 10:32N 56°12' E 012°33'0 0.0
2014-Oct-05 09:32N 56°12' E 012°33'0 0.0
2014-Oct-05 08:20N 56°12' E 012°33'0 0.0
2014-Oct-05 07:32N 56°12' E 012°33'0 0.0
2014-Oct-05 06:29N 56°12' E 012°33'0 0.0
2014-Oct-05 05:32N 56°12' E 012°33'0 0.0
2014-Oct-05 04:29N 56°12' E 012°33'0 0.0
2014-Oct-05 03:32N 56°12' E 012°33'0 0.0
2014-Oct-05 02:32N 56°12' E 012°33'0 0.0
2014-Oct-05 01:32N 56°12' E 012°33'0 0.0
2014-Oct-05 00:32N 56°12' E 012°33'0 0.0
2014-Oct-04 23:29N 56°12' E 012°33'0 0.0
2014-Oct-04 22:32N 56°12' E 012°33'0 0.0
2014-Oct-04 21:29N 56°12' E 012°33'0 0.0
2014-Oct-04 20:32N 56°12' E 012°33'0 0.0
2014-Oct-04 19:32N 56°12' E 012°33'0 0.0
2014-Oct-04 18:26N 56°12' E 012°33'0 0.0
2014-Oct-04 17:26N 56°12' E 012°33'0 0.0
2014-Oct-04 16:29N 56°12' E 012°33'0 0.0
2014-Oct-04 15:32N 56°12' E 012°33'0 0.0
2014-Oct-04 14:29N 56°12' E 012°33'0 0.0
2014-Oct-04 13:26N 56°12' E 012°33'0 0.0
2014-Oct-04 12:32N 56°12' E 012°33'0 0.0
2014-Oct-04 11:32N 56°12' E 012°33'0 0.0
2014-Oct-04 10:26N 56°12' E 012°33'0 0.0
2014-Oct-04 09:32N 56°12' E 012°33'0 0.0
2014-Oct-04 08:32N 56°12' E 012°33'0 0.0
2014-Oct-04 07:29N 56°12' E 012°33'0 0.0
2014-Oct-04 06:32N 56°12' E 012°33'0 0.0
2014-Oct-04 05:29N 56°12' E 012°33'0 0.0
2014-Oct-04 04:32N 56°12' E 012°33'0 0.0
2014-Oct-04 03:32N 56°12' E 012°33'0 0.0
2014-Oct-04 02:32N 56°12' E 012°33'0 0.0
2014-Oct-04 01:29N 56°12' E 012°33'  

Dump ship's entire track history